createdAt,value
2023-01-15T00:00:19.199Z,99839.66
2023-01-15T00:02:45.651Z,99850.53
2023-01-15T00:05:12.183Z,99838.19
2023-01-15T00:07:38.745Z,99842.78
2023-01-15T00:10:05.766Z,99850.53
2023-01-15T00:12:32.292Z,99851.31
2023-01-15T00:14:58.756Z,99847.50
2023-01-15T00:17:25.469Z,99858.63
2023-01-15T00:19:51.986Z,99852.09
2023-01-15T00:22:18.537Z,99850.72
2023-01-15T00:25:03.367Z,99847.25
2023-01-15T00:27:38.722Z,99825.25
2023-01-15T00:30:07.038Z,99829.09
2023-01-15T00:32:33.556Z,99832.09
2023-01-15T00:35:01.054Z,99824.47
2023-01-15T00:37:27.660Z,99833.78
2023-01-15T00:39:54.279Z,99839.94
2023-01-15T00:42:20.734Z,99837.69
2023-01-15T00:44:47.417Z,99839.25
2023-01-15T00:47:16.645Z,99830.38
2023-01-15T00:49:43.904Z,99830.31
2023-01-15T00:52:11.545Z,99831.78
2023-01-15T00:54:38.150Z,99840.53
2023-01-15T00:57:04.599Z,99824.78
2023-01-15T00:59:31.030Z,99855.91
2023-01-15T01:01:57.667Z,99852.44
2023-01-15T01:04:24.162Z,99837.06
2023-01-15T01:06:50.944Z,99848.53
2023-01-15T01:09:17.423Z,99854.28
2023-01-15T01:11:43.958Z,99850.88
2023-01-15T01:14:11.619Z,99852.00
2023-01-15T01:16:39.837Z,99845.84
2023-01-15T01:19:13.932Z,99851.13
2023-01-15T01:21:41.895Z,99855.06
2023-01-15T01:24:10.420Z,99852.72
2023-01-15T01:26:36.960Z,99849.13
2023-01-15T01:29:04.255Z,99851.03
2023-01-15T01:31:31.014Z,99848.00
2023-01-15T01:33:59.030Z,99846.41
2023-01-15T01:36:35.134Z,99853.63
2023-01-15T01:39:03.592Z,99856.34
2023-01-15T01:41:30.582Z,99851.25
2023-01-15T01:43:59.899Z,99854.31
2023-01-15T01:46:28.634Z,99849.34
2023-01-15T01:49:03.342Z,99855.63
2023-01-15T01:51:35.882Z,99869.53
2023-01-15T01:54:03.412Z,99867.63
2023-01-15T01:56:34.361Z,99853.81
2023-01-15T01:59:02.836Z,99846.78
2023-01-15T02:01:29.576Z,99864.06
2023-01-15T02:03:56.439Z,99863.38
2023-01-15T02:06:25.895Z,99841.81
2023-01-15T02:08:52.910Z,99859.13
2023-01-15T02:11:22.123Z,99856.66
2023-01-15T02:13:51.608Z,99845.09
2023-01-15T02:16:39.678Z,99854.75
2023-01-15T02:19:30.725Z,99842.41
2023-01-15T02:22:07.909Z,99836.84
2023-01-15T02:24:43.837Z,99852.88
2023-01-15T02:27:15.227Z,99857.59
2023-01-15T02:30:01.677Z,99842.22
2023-01-15T02:32:34.738Z,99835.59
2023-01-15T02:35:12.794Z,99851.31
2023-01-15T02:37:45.095Z,99864.34
2023-01-15T02:40:13.640Z,99842.38
2023-01-15T02:42:42.626Z,99849.97
2023-01-15T02:45:11.562Z,99851.22
2023-01-15T02:47:43.281Z,99864.69
2023-01-15T02:50:17.602Z,99856.50
2023-01-15T02:52:51.990Z,99851.47
2023-01-15T02:55:26.064Z,99851.88
2023-01-15T02:57:56.992Z,99861.09
2023-01-15T03:00:25.954Z,99855.06
2023-01-15T03:03:08.619Z,99843.81
2023-01-15T03:05:53.744Z,99843.28
2023-01-15T03:08:20.237Z,99832.84
2023-01-15T03:10:55.658Z,99826.00
2023-01-15T03:13:33.918Z,99847.88
2023-01-15T03:16:40.234Z,99834.31
2023-01-15T03:19:33.438Z,99829.25
2023-01-15T03:22:07.156Z,99833.44
2023-01-15T03:24:42.109Z,99851.16
2023-01-15T03:27:08.693Z,99839.94
2023-01-15T03:29:39.306Z,99834.22
2023-01-15T03:32:06.342Z,99846.47
2023-01-15T03:34:52.240Z,99832.53
2023-01-15T03:37:20.577Z,99831.75
2023-01-15T03:39:47.669Z,99834.78
2023-01-15T03:42:45.583Z,99825.94
2023-01-15T03:45:14.769Z,99816.63
2023-01-15T03:47:41.182Z,99832.31
2023-01-15T03:50:20.114Z,99843.09
2023-01-15T03:52:50.290Z,99836.13
2023-01-15T03:55:29.933Z,99837.25
2023-01-15T03:58:22.416Z,99822.34
2023-01-15T04:00:59.790Z,99824.50
2023-01-15T04:03:28.880Z,99818.53
2023-01-15T04:05:58.938Z,99798.03
2023-01-15T04:08:27.971Z,99808.69
2023-01-15T04:10:59.510Z,99817.81
2023-01-15T04:13:26.314Z,99813.41
2023-01-15T04:15:53.172Z,99818.72
2023-01-15T04:18:20.563Z,99830.47
2023-01-15T04:20:47.709Z,99825.09
2023-01-15T04:23:14.667Z,99813.84
2023-01-15T04:25:41.867Z,99816.88
2023-01-15T04:28:09.456Z,99814.19
2023-01-15T04:30:36.960Z,99810.97
2023-01-15T04:33:03.637Z,99828.88
2023-01-15T04:35:30.776Z,99822.28
2023-01-15T04:37:58.620Z,99823.75
2023-01-15T04:40:45.073Z,99820.91
2023-01-15T04:43:31.419Z,99830.13
2023-01-15T04:45:58.386Z,99816.22
2023-01-15T04:48:25.411Z,99824.66
2023-01-15T04:50:52.355Z,99816.22
2023-01-15T04:53:18.854Z,99821.94
2023-01-15T04:55:45.306Z,99826.56
2023-01-15T04:58:11.800Z,99821.81
2023-01-15T05:00:38.306Z,99838.09
2023-01-15T05:03:04.759Z,99825.09
2023-01-15T05:05:32.689Z,99826.22
2023-01-15T05:07:59.165Z,99826.41
2023-01-15T05:10:25.845Z,99824.84
2023-01-15T05:12:52.409Z,99836.75
2023-01-15T05:15:18.882Z,99831.81
2023-01-15T05:17:45.365Z,99825.63
2023-01-15T05:20:12.175Z,99826.06
2023-01-15T05:22:38.680Z,99827.53
2023-01-15T05:25:05.621Z,99814.78
2023-01-15T05:27:32.050Z,99812.88
2023-01-15T05:29:58.503Z,99816.69
2023-01-15T05:32:24.970Z,99813.66
2023-01-15T05:34:51.438Z,99812.09
2023-01-15T05:37:19.065Z,99798.97
2023-01-15T05:39:45.519Z,99817.69
2023-01-15T05:42:11.978Z,99805.47
2023-01-15T05:44:38.526Z,99811.19
2023-01-15T05:47:07.590Z,99811.06
2023-01-15T05:49:34.632Z,99807.06
2023-01-15T05:52:02.085Z,99806.56
2023-01-15T05:54:31.897Z,99801.53
2023-01-15T05:56:58.479Z,99796.50
2023-01-15T05:59:27.607Z,99814.44
2023-01-15T06:01:54.848Z,99809.38
2023-01-15T06:04:23.101Z,99816.34
2023-01-15T06:06:53.262Z,99820.47
2023-01-15T06:09:20.600Z,99811.63
2023-01-15T06:11:47.477Z,99816.91
2023-01-15T06:14:14.371Z,99813.00
2023-01-15T06:16:41.766Z,99810.97
2023-01-15T06:19:11.505Z,99822.06
2023-01-15T06:21:38.513Z,99822.38
2023-01-15T06:24:05.497Z,99839.19
2023-01-15T06:26:32.148Z,99850.06
2023-01-15T06:28:58.750Z,99841.44
2023-01-15T06:31:28.759Z,99856.03
2023-01-15T06:33:55.552Z,99864.19
2023-01-15T06:36:24.221Z,99865.88
2023-01-15T06:38:50.809Z,99856.69
2023-01-15T06:41:41.454Z,99838.41
2023-01-15T06:44:34.218Z,99846.69
2023-01-15T06:47:22.876Z,99837.41
2023-01-15T06:49:53.016Z,99847.59
2023-01-15T06:52:19.526Z,99864.38
2023-01-15T06:54:46.763Z,99848.25
2023-01-15T06:57:13.625Z,99840.63
2023-01-15T06:59:40.315Z,99855.06
2023-01-15T07:02:07.081Z,99863.25
2023-01-15T07:04:33.553Z,99846.34
2023-01-15T07:07:00.065Z,99848.09
2023-01-15T07:09:26.572Z,99858.09
2023-01-15T07:11:53.234Z,99836.56
2023-01-15T07:14:25.187Z,99841.16
2023-01-15T07:16:52.269Z,99837.78
2023-01-15T07:19:19.708Z,99849.22
2023-01-15T07:21:46.670Z,99856.69
2023-01-15T07:24:13.989Z,99857.81
2023-01-15T07:26:41.391Z,99839.44
2023-01-15T07:29:07.945Z,99856.69
2023-01-15T07:31:34.619Z,99846.59
2023-01-15T07:34:01.172Z,99861.63
2023-01-15T07:36:28.067Z,99858.00
2023-01-15T07:38:54.681Z,99846.81
2023-01-15T07:41:40.129Z,99854.75
2023-01-15T07:44:24.871Z,99851.28
2023-01-15T07:47:09.770Z,99851.47
2023-01-15T07:49:51.273Z,99844.88
2023-01-15T07:52:18.940Z,99857.72
2023-01-15T07:54:46.603Z,99853.91
2023-01-15T07:57:18.607Z,99855.69
2023-01-15T07:59:45.108Z,99854.75
2023-01-15T08:02:12.984Z,99858.03
2023-01-15T08:04:39.587Z,99852.69
2023-01-15T08:07:06.550Z,99842.25
2023-01-15T08:09:33.321Z,99843.84
2023-01-15T08:12:19.830Z,99838.13
2023-01-15T08:15:05.370Z,99840.81
2023-01-15T08:17:38.934Z,99850.78
2023-01-15T08:20:11.905Z,99851.56
2023-01-15T08:22:40.057Z,99855.16
2023-01-15T08:25:08.291Z,99865.13
2023-01-15T08:27:35.176Z,99866.03
2023-01-15T08:30:01.719Z,99876.88
2023-01-15T08:32:28.145Z,99880.34
2023-01-15T08:34:54.659Z,99863.94
2023-01-15T08:37:22.113Z,99859.78
2023-01-15T08:39:51.726Z,99862.16
2023-01-15T08:42:18.441Z,99874.13
2023-01-15T08:44:44.935Z,99864.31
2023-01-15T08:47:11.423Z,99867.09
2023-01-15T08:49:38.318Z,99853.81
2023-01-15T08:52:05.215Z,99870.81
2023-01-15T08:54:32.071Z,99863.22
2023-01-15T08:56:59.718Z,99853.25
2023-01-15T08:59:26.638Z,99841.84
2023-01-15T09:01:53.285Z,99849.91
2023-01-15T09:04:21.464Z,99854.16
2023-01-15T09:06:49.016Z,99853.03
2023-01-15T09:09:15.815Z,99852.84
2023-01-15T09:11:44.262Z,99858.00
2023-01-15T09:14:58.808Z,99853.63
2023-01-15T09:17:00.867Z,99876.97
2023-01-15T09:19:27.329Z,99859.34
2023-01-15T09:21:53.788Z,99867.09
2023-01-15T09:24:20.288Z,99860.28
2023-01-15T09:26:47.604Z,99873.38
2023-01-15T09:29:14.067Z,99862.19
2023-01-15T09:31:40.586Z,99865.66
2023-01-15T09:34:07.082Z,99863.84
2023-01-15T09:36:35.409Z,99849.06
2023-01-15T09:39:03.649Z,99860.16
2023-01-15T09:42:13.379Z,99870.63
2023-01-15T09:45:20.391Z,99871.63
2023-01-15T09:48:23.731Z,99861.34
2023-01-15T09:51:03.638Z,99867.84
2023-01-15T09:53:42.074Z,99870.53
2023-01-15T09:56:19.271Z,99872.63
2023-01-15T09:58:46.659Z,99889.00
2023-01-15T10:01:34.296Z,99869.16
2023-01-15T10:04:17.142Z,99902.13
2023-01-15T10:06:51.206Z,99895.63
2023-01-15T10:09:23.428Z,99871.94
2023-01-15T10:12:16.695Z,99882.38
2023-01-15T10:14:52.055Z,99878.44
2023-01-15T10:17:48.643Z,99885.50
2023-01-15T10:20:35.766Z,99870.22
2023-01-15T10:23:16.785Z,99871.56
2023-01-15T10:25:52.159Z,99882.91
2023-01-15T10:28:33.810Z,99883.00
2023-01-15T10:31:13.792Z,99886.03
2023-01-15T10:34:09.624Z,99894.34
2023-01-15T10:36:39.481Z,99882.78
2023-01-15T10:39:24.230Z,99862.00
2023-01-15T10:42:25.831Z,99895.13
2023-01-15T10:45:16.149Z,99907.66
2023-01-15T10:47:47.068Z,99887.53
2023-01-15T10:50:25.118Z,99928.75
2023-01-15T10:53:17.358Z,99880.25
2023-01-15T10:55:52.579Z,99917.72
2023-01-15T10:58:54.923Z,99885.19
2023-01-15T11:01:25.744Z,99916.66
2023-01-15T11:03:53.971Z,99882.50
2023-01-15T11:06:23.252Z,99876.25
2023-01-15T11:09:11.196Z,99889.34
2023-01-15T11:11:59.995Z,99879.75
2023-01-15T11:14:58.681Z,99910.66
2023-01-15T11:17:49.143Z,99903.56
2023-01-15T11:20:21.244Z,99889.06
2023-01-15T11:22:47.837Z,99882.53
2023-01-15T11:25:25.337Z,99906.13
2023-01-15T11:27:52.081Z,99879.50
2023-01-15T11:30:32.011Z,99902.97
2023-01-15T11:33:04.247Z,99913.31
2023-01-15T11:35:31.980Z,99907.25
2023-01-15T11:38:16.414Z,99892.44
2023-01-15T11:40:59.163Z,99907.63
2023-01-15T11:43:49.193Z,99912.03
2023-01-15T11:46:43.496Z,99919.72
2023-01-15T11:49:29.080Z,99884.94
2023-01-15T11:51:58.243Z,99894.25
2023-01-15T11:54:26.367Z,99903.22
2023-01-15T11:56:54.266Z,99918.38
2023-01-15T11:59:21.805Z,99874.22
2023-01-15T12:01:50.236Z,99898.16
2023-01-15T12:04:45.528Z,99887.47
2023-01-15T12:07:13.828Z,99879.16
2023-01-15T12:10:15.802Z,99876.31
2023-01-15T12:12:54.212Z,99869.03
2023-01-15T12:15:31.837Z,99896.00
2023-01-15T12:18:25.176Z,99906.06
2023-01-15T12:21:15.030Z,99865.78
2023-01-15T12:23:59.016Z,99924.28
2023-01-15T12:27:03.406Z,99900.84
2023-01-15T12:29:57.882Z,99901.19
2023-01-15T12:32:31.360Z,99871.22
2023-01-15T12:35:07.333Z,99921.41
2023-01-15T12:37:40.728Z,99898.06
2023-01-15T12:40:54.838Z,99889.91
2023-01-15T12:43:44.843Z,99877.78
2023-01-15T12:46:29.128Z,99901.22
2023-01-15T12:49:09.717Z,99893.09
2023-01-15T12:51:49.182Z,99884.00
2023-01-15T12:54:23.585Z,99878.19
2023-01-15T12:56:56.047Z,99895.44
2023-01-15T12:59:34.167Z,99881.00
2023-01-15T13:02:24.123Z,99885.91
2023-01-15T13:05:16.105Z,99879.09
2023-01-15T13:07:59.220Z,99864.88
2023-01-15T13:10:29.423Z,99886.59
2023-01-15T13:13:05.286Z,99878.44
2023-01-15T13:15:39.797Z,99895.94
2023-01-15T13:18:24.365Z,99876.22
2023-01-15T13:20:52.517Z,99894.94
2023-01-15T13:23:37.312Z,99890.53
2023-01-15T13:26:12.980Z,99896.28
2023-01-15T13:28:50.567Z,99874.75
2023-01-15T13:31:35.844Z,99887.97
2023-01-15T13:34:12.798Z,99886.53
2023-01-15T13:36:45.683Z,99914.56
2023-01-15T13:39:24.108Z,99896.50
2023-01-15T13:42:11.841Z,99906.00
2023-01-15T13:44:47.331Z,99914.88
2023-01-15T13:47:21.794Z,99905.22
2023-01-15T13:49:52.392Z,99910.28
2023-01-15T13:52:31.753Z,99905.81
2023-01-15T13:55:16.242Z,99900.66
2023-01-15T13:57:43.366Z,99915.34
2023-01-15T14:00:28.427Z,99934.34
2023-01-15T14:03:22.366Z,99895.41
2023-01-15T14:05:55.804Z,99931.63
2023-01-15T14:08:47.115Z,99914.94
2023-01-15T14:12:00.666Z,99904.16
2023-01-15T14:14:27.190Z,99901.78
2023-01-15T14:17:19.540Z,99917.16
2023-01-15T14:20:17.326Z,99925.22
2023-01-15T14:22:46.411Z,99944.84
2023-01-15T14:25:25.064Z,99908.19
2023-01-15T14:28:02.298Z,99902.25
2023-01-15T14:31:17.436Z,99922.44
2023-01-15T14:34:07.538Z,99910.13
2023-01-15T14:36:49.340Z,99942.16
2023-01-15T14:39:41.844Z,99943.25
2023-01-15T14:42:56.141Z,99946.94
2023-01-15T14:45:30.438Z,99946.94
2023-01-15T14:47:58.878Z,99933.59
2023-01-15T14:50:38.638Z,99931.38
2023-01-15T14:53:11.123Z,99932.63
2023-01-15T14:55:58.506Z,99943.53
2023-01-15T14:58:33.955Z,99934.53
2023-01-15T15:01:13.956Z,99938.03
2023-01-15T15:03:50.080Z,99936.91
2023-01-15T15:06:17.309Z,99936.25
2023-01-15T15:08:46.062Z,99942.75
2023-01-15T15:11:52.257Z,99936.59
2023-01-15T15:14:21.249Z,99935.56
2023-01-15T15:16:53.764Z,99948.25
2023-01-15T15:19:34.888Z,99942.84
2023-01-15T15:22:06.666Z,99951.28
2023-01-15T15:24:36.602Z,99958.88
2023-01-15T15:27:29.553Z,99956.50
2023-01-15T15:30:05.533Z,100014.47
2023-01-15T15:32:37.966Z,99983.47
2023-01-15T15:35:04.855Z,99957.31
2023-01-15T15:37:32.696Z,99945.22
2023-01-15T15:40:03.265Z,99947.91
2023-01-15T15:42:56.937Z,99959.56
2023-01-15T15:45:47.471Z,99968.63
2023-01-15T15:48:39.381Z,99970.41
2023-01-15T15:51:24.680Z,99972.44
2023-01-15T15:53:51.586Z,100002.69
2023-01-15T15:56:18.392Z,99989.13
2023-01-15T15:58:46.212Z,99981.56
2023-01-15T16:01:14.091Z,99969.59
2023-01-15T16:03:48.532Z,99977.22
2023-01-15T16:06:24.548Z,99984.16
2023-01-15T16:09:04.448Z,99970.72
2023-01-15T16:11:33.330Z,99968.81
2023-01-15T16:14:05.004Z,99969.59
2023-01-15T16:16:32.056Z,99964.66
2023-01-15T16:19:01.517Z,99968.59
2023-01-15T16:21:39.982Z,100003.09
2023-01-15T16:24:23.994Z,99995.44
2023-01-15T16:27:19.021Z,100002.53
2023-01-15T16:29:50.801Z,100008.09
2023-01-15T16:32:28.795Z,99990.00
2023-01-15T16:35:14.970Z,100003.69
2023-01-15T16:37:42.054Z,100019.50
2023-01-15T16:40:21.319Z,100004.94
2023-01-15T16:42:48.755Z,99998.78
2023-01-15T16:45:22.362Z,99995.31
2023-01-15T16:48:07.524Z,100000.69
2023-01-15T16:50:36.356Z,99995.78
2023-01-15T16:53:04.932Z,100010.09
2023-01-15T16:55:34.449Z,100019.97
2023-01-15T16:58:13.094Z,100012.88
2023-01-15T17:00:45.676Z,100029.78
2023-01-15T17:03:14.404Z,100015.78
2023-01-15T17:05:41.514Z,100037.72
2023-01-15T17:08:23.771Z,100023.16
2023-01-15T17:10:56.368Z,100019.38
2023-01-15T17:13:30.398Z,100024.75
2023-01-15T17:16:16.169Z,100007.50
2023-01-15T17:18:42.730Z,100016.56
2023-01-15T17:21:28.799Z,100031.91
2023-01-15T17:23:57.031Z,100015.28
2023-01-15T17:26:26.062Z,100011.81
2023-01-15T17:28:52.633Z,100017.88
2023-01-15T17:31:26.295Z,100017.88
2023-01-15T17:33:53.079Z,100015.06
2023-01-15T17:36:20.633Z,100017.59
2023-01-15T17:38:47.563Z,100022.50
2023-01-15T17:41:15.753Z,100014.63
2023-01-15T17:43:42.809Z,100032.22
2023-01-15T17:46:09.651Z,100023.69
2023-01-15T17:48:36.577Z,100029.41
2023-01-15T17:51:05.164Z,100035.09
2023-01-15T17:53:32.601Z,100035.88
2023-01-15T17:56:17.711Z,100042.03
2023-01-15T17:59:02.645Z,100044.91
2023-01-15T18:01:49.513Z,100052.97
2023-01-15T18:04:46.681Z,100033.72
2023-01-15T18:07:15.208Z,100047.00
2023-01-15T18:09:43.136Z,100035.47
2023-01-15T18:12:09.802Z,100031.19
2023-01-15T18:14:36.329Z,100030.41
2023-01-15T18:17:03.216Z,100033.75
2023-01-15T18:19:29.811Z,100040.72
2023-01-15T18:21:56.569Z,100031.19
2023-01-15T18:24:23.797Z,100029.63
2023-01-15T18:26:51.961Z,100034.22
2023-01-15T18:29:19.865Z,100034.66
2023-01-15T18:31:46.465Z,100029.84
2023-01-15T18:34:13.135Z,100029.22
2023-01-15T18:36:41.210Z,100025.63
2023-01-15T18:39:08.594Z,100030.06
2023-01-15T18:41:36.023Z,100024.22
2023-01-15T18:44:23.745Z,100027.25
2023-01-15T18:46:56.345Z,100034.81
2023-01-15T18:49:23.014Z,100025.84
2023-01-15T18:52:08.343Z,100025.22
2023-01-15T18:54:35.999Z,100024.78
2023-01-15T18:57:02.679Z,100020.38
2023-01-15T18:59:29.167Z,100019.13
2023-01-15T19:01:59.052Z,100017.09
2023-01-15T19:04:26.294Z,100026.06
2023-01-15T19:06:53.320Z,100016.91
2023-01-15T19:09:24.009Z,100022.59
2023-01-15T19:11:52.156Z,100021.66
2023-01-15T19:14:38.492Z,100014.56
2023-01-15T19:17:23.746Z,100019.94
2023-01-15T19:19:50.232Z,100018.69
2023-01-15T19:22:35.564Z,100005.28
2023-01-15T19:25:02.320Z,100000.88
2023-01-15T19:27:28.891Z,100008.94
2023-01-15T19:29:55.414Z,99993.63
2023-01-15T19:32:21.915Z,99994.25
2023-01-15T19:34:48.815Z,100005.16
2023-01-15T19:37:15.376Z,100007.19
2023-01-15T19:39:41.910Z,99990.44
2023-01-15T19:42:31.378Z,99981.34
2023-01-15T19:45:16.790Z,99985.78
2023-01-15T19:48:02.197Z,99983.53
2023-01-15T19:50:36.282Z,99984.97
2023-01-15T19:53:03.278Z,99967.78
2023-01-15T19:55:31.793Z,99975.97
2023-01-15T19:58:00.690Z,99972.81
2023-01-15T20:00:28.075Z,99968.56
2023-01-15T20:02:55.743Z,99965.88
2023-01-15T20:05:23.505Z,99962.88
2023-01-15T20:07:49.962Z,99972.03
2023-01-15T20:10:19.179Z,99947.09
2023-01-15T20:13:04.245Z,99939.38
2023-01-15T20:15:31.317Z,99935.91
2023-01-15T20:17:58.458Z,99937.16
2023-01-15T20:20:26.302Z,99927.97
2023-01-15T20:22:52.745Z,99920.59
2023-01-15T20:25:19.330Z,99929.41
2023-01-15T20:27:45.880Z,99922.50
2023-01-15T20:30:15.094Z,99922.50
2023-01-15T20:32:44.123Z,99922.63
2023-01-15T20:35:13.279Z,99914.72
2023-01-15T20:37:40.216Z,99917.72
2023-01-15T20:40:07.843Z,99914.56
2023-01-15T20:42:53.788Z,99909.53
2023-01-15T20:45:20.499Z,99910.19
2023-01-15T20:48:05.692Z,99904.81
2023-01-15T20:50:36.191Z,99899.13
2023-01-15T20:53:04.201Z,99893.09
2023-01-15T20:55:55.526Z,99894.38
2023-01-15T20:58:24.057Z,99890.38
2023-01-15T21:00:50.817Z,99880.56
2023-01-15T21:03:18.064Z,99883.84
2023-01-15T21:05:44.767Z,99876.72
2023-01-15T21:08:11.310Z,99881.44
2023-01-15T21:10:38.686Z,99871.63
2023-01-15T21:13:05.250Z,99870.19
2023-01-15T21:15:31.767Z,99865.25
2023-01-15T21:17:58.218Z,99853.56
2023-01-15T21:20:24.680Z,99852.44
2023-01-15T21:22:51.258Z,99850.19
2023-01-15T21:25:17.787Z,99844.06
2023-01-15T21:27:44.391Z,99843.72
2023-01-15T21:30:11.425Z,99843.38
2023-01-15T21:32:38.020Z,99850.66
2023-01-15T21:35:04.785Z,99846.06
2023-01-15T21:37:31.343Z,99837.72
2023-01-15T21:39:57.854Z,99840.06
2023-01-15T21:42:42.881Z,99829.31
2023-01-15T21:45:11.384Z,99826.31
2023-01-15T21:47:41.446Z,99817.91
2023-01-15T21:50:08.857Z,99817.91
2023-01-15T21:52:35.405Z,99816.16
2023-01-15T21:55:01.930Z,99805.84
2023-01-15T21:57:29.628Z,99802.06
2023-01-15T21:59:56.199Z,99799.03
2023-01-15T22:02:23.482Z,99797.28
2023-01-15T22:04:50.333Z,99785.06
2023-01-15T22:07:18.007Z,99787.41
2023-01-15T22:09:44.795Z,99773.31
2023-01-15T22:12:12.701Z,99768.72
2023-01-15T22:14:39.268Z,99763.06
2023-01-15T22:17:05.981Z,99755.78
2023-01-15T22:19:33.525Z,99755.44
2023-01-15T22:22:02.955Z,99749.38
2023-01-15T22:24:31.960Z,99751.41
2023-01-15T22:26:59.515Z,99750.75
2023-01-15T22:29:40.027Z,99743.13
2023-01-15T22:32:08.590Z,99736.66
2023-01-15T22:34:35.355Z,99727.94
2023-01-15T22:37:02.490Z,99730.72
2023-01-15T22:39:29.413Z,99727.38
2023-01-15T22:42:14.499Z,99735.44
2023-01-15T22:44:43.517Z,99712.50
2023-01-15T22:47:10.664Z,99715.19
2023-01-15T22:49:37.146Z,99708.34
2023-01-15T22:52:03.936Z,99706.88
2023-01-15T22:54:30.441Z,99696.91
2023-01-15T22:56:57.067Z,99697.25
2023-01-15T22:59:24.155Z,99695.00
2023-01-15T23:01:50.758Z,99691.19
2023-01-15T23:04:22.808Z,99679.31
2023-01-15T23:06:53.700Z,99679.31
2023-01-15T23:09:22.534Z,99677.75
2023-01-15T23:11:51.317Z,99669.69
2023-01-15T23:14:19.559Z,99662.75
2023-01-15T23:16:46.298Z,99661.19
2023-01-15T23:19:12.888Z,99669.25
2023-01-15T23:21:40.291Z,99664.22
2023-01-15T23:24:07.259Z,99651.56
2023-01-15T23:26:34.709Z,99659.19
2023-01-15T23:29:01.723Z,99656.84
2023-01-15T23:31:28.720Z,99652.56
2023-01-15T23:33:55.211Z,99642.94
2023-01-15T23:36:22.571Z,99645.63
2023-01-15T23:38:49.295Z,99642.16
2023-01-15T23:41:18.601Z,99623.00
2023-01-15T23:44:04.600Z,99630.97
2023-01-15T23:46:37.242Z,99622.13
2023-01-15T23:49:09.103Z,99628.28
2023-01-15T23:51:36.962Z,99617.88
2023-01-15T23:54:05.106Z,99626.72
2023-01-15T23:56:32.431Z,99618.22
2023-01-15T23:59:00.193Z,99628.97
